»·PEaware :: N51GL KPSP-KBUR

N51GL :: KPSP-KBUR

FLIGHT INFORMATION

Flight Status: Arrived
Operator: Privately registered:
United States
More flights under this callsign
Pilot: Erik B. (9150)
Aircraft: EMBRAER BANDEIRANTE
(E110)
More flights by this aircraft type
Origin: KPSP Palm Springs Intl
United States
Destination: KBUR Bob Hope-Burbank
United States
More flights between these airports :: More routes between these airports
Route: +RAL POM
File this flight plan on PilotEdge
Remarks:
Altitude:
(Current/Filed)
6,500ft
Speed:
(Current/Filed)
180kts
Departed: 22-Apr-19 04:04 PM
Arrived: 22-Apr-19 04:46 PM
Distance/Time
Traveled:
95nm/0:42
Distance/Time
To Go:
Arrived

Flight Plot

Page will automatically refresh every two minutes.


Map Options




Map Legend


Flown Route
Filed Route
Departure Airport
Arrival Airport
Navaid (VOR, NDB)
Fix

Horizontal Profiles

Position Reports

Time Latitude Longitude Heading Altitude Ground
Speed
22-Apr-19 15:32 33.823167 -116.498197 55 398ft 0kts
22-Apr-19 15:33 33.823167 -116.498197 55 398ft 0kts
22-Apr-19 15:34 33.823167 -116.498197 55 398ft 0kts
22-Apr-19 15:35 33.823167 -116.498197 55 398ft 0kts
22-Apr-19 15:36 33.823167 -116.498197 55 398ft 0kts
22-Apr-19 15:37 33.823167 -116.498197 55 398ft 0kts
22-Apr-19 15:38 33.823167 -116.498197 55 398ft 0kts
22-Apr-19 15:39 33.823167 -116.498197 55 398ft 0kts
22-Apr-19 15:40 33.823167 -116.498197 55 398ft 0kts
22-Apr-19 15:41 33.823167 -116.498197 55 398ft 0kts
22-Apr-19 15:42 33.823167 -116.498197 55 398ft 0kts
22-Apr-19 15:43 33.823167 -116.498197 55 398ft 0kts
22-Apr-19 15:44 33.823167 -116.498197 55 398ft 0kts
22-Apr-19 15:45 33.823167 -116.498197 55 398ft 0kts
22-Apr-19 15:46 33.823167 -116.498197 55 398ft 0kts
22-Apr-19 15:47 33.823167 -116.498197 55 398ft 0kts
22-Apr-19 15:48 33.823167 -116.498197 55 398ft 0kts
22-Apr-19 15:49 33.823167 -116.498197 55 398ft 0kts
22-Apr-19 15:50 33.823167 -116.498197 55 398ft 0kts
22-Apr-19 15:51 33.823167 -116.498197 55 398ft 0kts
22-Apr-19 15:52 33.823167 -116.498197 55 398ft 0kts
22-Apr-19 15:53 33.823167 -116.498197 55 398ft 0kts
22-Apr-19 15:54 33.823167 -116.498197 55 398ft 0kts
22-Apr-19 15:55 33.823167 -116.498197 55 398ft 0kts
22-Apr-19 15:56 33.823425 -116.498038 333 398ft 6kts
22-Apr-19 15:58 33.824560 -116.499026 321 402ft 3kts
22-Apr-19 15:59 33.824569 -116.499035 320 402ft 0kts
22-Apr-19 16:00 33.824638 -116.499102 321 402ft 2kts
22-Apr-19 16:01 33.824653 -116.499600 234 403ft 0kts
22-Apr-19 16:02 33.824653 -116.499600 234 403ft 0kts
22-Apr-19 16:03 33.824573 -116.499735 234 404ft 8kts
22-Apr-19 16:04 33.829958 -116.505010 325 433ft 95kts
22-Apr-19 16:05 33.855035 -116.522731 323 1422ft 115kts
22-Apr-19 16:06 33.850032 -116.564639 264 2441ft 146kts
22-Apr-19 16:07 33.872304 -116.599944 321 3421ft 143kts
22-Apr-19 16:08 33.883102 -116.641113 255 4484ft 158kts
22-Apr-19 16:09 33.886468 -116.691123 289 5538ft 150kts
22-Apr-19 16:10 33.876154 -116.743012 258 6179ft 175kts
22-Apr-19 16:11 33.869732 -116.800479 279 6555ft 176kts
22-Apr-19 16:12 33.874723 -116.857878 285 6503ft 168kts
22-Apr-19 16:13 33.881910 -116.913497 286 6472ft 167kts
22-Apr-19 16:14 33.889428 -116.968541 286 6488ft 166kts
22-Apr-19 16:15 33.897070 -117.023821 287 6495ft 168kts
22-Apr-19 16:16 33.904746 -117.079510 286 6508ft 167kts
22-Apr-19 16:17 33.912372 -117.134784 286 6511ft 166kts
22-Apr-19 16:18 33.919883 -117.189475 287 6517ft 164kts
22-Apr-19 16:19 33.927333 -117.243860 286 6516ft 164kts
22-Apr-19 16:20 33.934783 -117.298478 285 6510ft 165kts
22-Apr-19 16:21 33.942200 -117.353162 286 6513ft 166kts
22-Apr-19 16:22 33.949639 -117.408146 285 6522ft 165kts
22-Apr-19 16:23 33.960096 -117.461903 298 6524ft 161kts
22-Apr-19 16:23 33.975022 -117.503384 299 6517ft 162kts
22-Apr-19 16:25 33.996353 -117.561893 300 6521ft 164kts
22-Apr-19 16:25 34.011780 -117.604140 300 6491ft 164kts
22-Apr-19 16:27 34.033314 -117.663098 299 6493ft 164kts
22-Apr-19 16:28 34.051687 -117.713471 299 6456ft 166kts
22-Apr-19 16:28 34.067313 -117.756423 298 5814ft 168kts
22-Apr-19 16:30 34.085212 -117.818665 288 4892ft 169kts
22-Apr-19 16:30 34.095170 -117.864538 286 4500ft 166kts
22-Apr-19 16:31 34.106594 -117.917513 286 4473ft 154kts
22-Apr-19 16:32 34.117314 -117.967259 285 4249ft 158kts
22-Apr-19 16:33 34.128424 -118.018953 283 3596ft 152kts
22-Apr-19 16:34 34.138838 -118.067543 281 2949ft 148kts
22-Apr-19 16:35 34.149156 -118.115822 281 3026ft 151kts
22-Apr-19 16:36 34.159777 -118.165652 281 2940ft 154kts
22-Apr-19 16:37 34.169592 -118.215680 278 2668ft 143kts
22-Apr-19 16:38 34.176710 -118.260037 278 2767ft 138kts
22-Apr-19 16:39 34.183192 -118.300257 271 2766ft 113kts
22-Apr-19 16:40 34.184201 -118.341204 269 2764ft 127kts
22-Apr-19 16:41 34.183626 -118.385012 264 2431ft 137kts
22-Apr-19 16:42 34.195982 -118.418349 27 1696ft 130kts
22-Apr-19 16:43 34.198202 -118.380728 95 1014ft 108kts
22-Apr-19 16:44 34.197720 -118.354984 94 706ft 46kts
22-Apr-19 16:45 34.198444 -118.352170 354 698ft 0kts
22-Apr-19 16:46 34.198444 -118.352170 354 698ft 0kts
22-Apr-19 16:47 34.198826 -118.353353 272 702ft 14kts
22-Apr-19 16:48 34.199455 -118.358144 315 717ft 11kts
22-Apr-19 16:49 34.200364 -118.359525 348 724ft 0kts
22-Apr-19 16:50 34.200364 -118.359525 348 724ft 0kts

Navigation Log

Ident Type
Flight plan parsing failed, navigation log unavailable